Time;durP1;ratioP1;P1;durP2;ratioP2;P2;SDS_P1;SDS_P2;PMS_P1;PMS_P2;Temp;Humidity;BMP_temperature;BMP_pressure;BME280_temperature;BME280_humidity;BME280_pressure;Samples;Min_cycle;Max_cycle;Signal;HPM_P1;HPM_P2
2023/03/21 00:01:53;;;;;;;87.15;26.90;;;;;;;8.11;100.00;101523.31;4978353;28;20056;-77
2023/03/21 00:04:25;;;;;;;85.65;27.35;;;;;;;8.12;100.00;101518.94;4974291;28;20046;-77
2023/03/21 00:06:57;;;;;;;90.82;27.63;;;;;;;8.11;100.00;101518.06;4965483;28;20484;-77
2023/03/21 00:09:24;;;;;;;82.43;27.30;;;;;;;8.12;100.00;101514.56;4940293;28;20050;-77
2023/03/21 00:11:52;;;;;;;63.75;23.23;;;;;;;8.14;100.00;101515.50;4980504;28;20034;-77
2023/03/21 00:14:19;;;;;;;72.53;24.50;;;;;;;8.13;100.00;101511.09;4963505;28;20057;-77
2023/03/21 00:16:50;;;;;;;62.85;23.08;;;;;;;8.14;100.00;101510.25;4965123;28;20039;-77
2023/03/21 00:19:23;;;;;;;74.22;25.10;;;;;;;8.15;100.00;101508.53;4970125;28;20042;-77
2023/03/21 00:21:51;;;;;;;68.13;23.75;;;;;;;8.16;100.00;101511.16;4984155;28;20511;-77
2023/03/21 00:24:34;;;;;;;71.10;23.52;;;;;;;8.17;100.00;101510.31;4964138;28;20050;-77
2023/03/21 00:27:02;;;;;;;47.22;19.60;;;;;;;8.17;100.00;101502.44;4938302;28;20408;-77
2023/03/21 00:29:49;;;;;;;59.35;21.42;;;;;;;8.18;100.00;101503.31;4985413;28;20043;-77
2023/03/21 00:32:20;;;;;;;52.05;21.20;;;;;;;8.19;100.00;101516.50;4972881;28;20519;-77
2023/03/21 00:34:49;;;;;;;56.15;20.35;;;;;;;8.17;100.00;101507.69;4965221;28;20420;-77
2023/03/21 00:37:36;;;;;;;56.03;20.15;;;;;;;8.18;100.00;101504.22;4968960;28;20051;-77
2023/03/21 00:40:09;;;;;;;53.90;20.80;;;;;;;8.19;100.00;101502.50;4954862;28;20051;-77
2023/03/21 00:42:45;;;;;;;55.85;20.92;;;;;;;8.19;100.00;101495.50;4940601;28;20408;-77
2023/03/21 00:45:14;;;;;;;43.40;18.52;;;;;;;8.20;100.00;101491.13;4967722;28;20061;-77
2023/03/21 00:47:42;;;;;;;39.17;17.75;;;;;;;8.18;100.00;101488.47;4987539;28;20042;-77
2023/03/21 00:50:11;;;;;;;55.10;20.17;;;;;;;8.20;100.00;101488.50;4960062;28;20062;-77
2023/03/21 00:52:38;;;;;;;48.47;18.63;;;;;;;8.19;100.00;101490.25;4966191;28;20054;-77
2023/03/21 00:55:15;;;;;;;59.08;20.23;;;;;;;8.20;100.00;101486.78;4969684;28;20053;-77
2023/03/21 00:57:44;;;;;;;52.30;19.08;;;;;;;8.20;100.00;101484.16;4943500;28;20051;-77
2023/03/21 01:00:19;;;;;;;47.88;18.83;;;;;;;8.20;100.00;101481.53;4971124;28;20051;-77
2023/03/21 01:02:56;;;;;;;46.50;18.27;;;;;;;8.20;100.00;101473.66;4971636;28;20046;-76
2023/03/21 01:08:41;;;;;;;40.63;17.52;;;;;;;8.22;100.00;101462.28;4995673;28;20042;-77
2023/03/21 01:11:25;;;;;;;42.88;18.05;;;;;;;8.21;100.00;101458.78;4982920;28;20058;-76
2023/03/21 01:13:53;;;;;;;45.88;17.85;;;;;;;8.22;100.00;101457.03;4941056;28;20031;-77
2023/03/21 01:16:37;;;;;;;37.53;17.75;;;;;;;8.22;100.00;101459.66;4953832;28;20413;-77
2023/03/21 01:19:06;;;;;;;41.95;17.92;;;;;;;8.22;100.00;101464.91;4960063;28;20051;-77
2023/03/21 01:21:48;;;;;;;50.00;17.77;;;;;;;8.20;100.00;101456.97;4984174;28;20491;-76
2023/03/21 01:24:15;;;;;;;42.15;17.92;;;;;;;8.20;100.00;101460.53;4987908;28;20061;-76
2023/03/21 01:26:43;;;;;;;52.00;18.00;;;;;;;8.22;100.00;101457.03;4975789;28;20381;-77
2023/03/21 01:29:10;;;;;;;45.63;18.08;;;;;;;8.22;100.00;101457.03;4940922;28;20069;-77
2023/03/21 01:31:38;;;;;;;59.95;19.92;;;;;;;8.23;100.00;101458.81;4974197;28;20054;-77
2023/03/21 01:34:06;;;;;;;38.47;16.83;;;;;;;8.22;100.00;101457.91;4983197;28;20054;-77
2023/03/21 01:36:34;;;;;;;54.45;19.58;;;;;;;8.23;100.00;101461.44;4940571;28;20050;-77
2023/03/21 01:39:05;;;;;;;66.95;20.08;;;;;;;8.23;100.00;101464.06;4987770;28;20074;-76
2023/03/21 01:41:39;;;;;;;53.50;18.98;;;;;;;8.22;100.00;101455.28;4981574;28;20046;-76
2023/03/21 01:44:25;;;;;;;64.05;20.55;;;;;;;8.22;100.00;101455.28;4952584;28;20055;-76
2023/03/21 01:46:53;;;;;;;69.70;19.42;;;;;;;8.23;100.00;101454.44;4981187;28;20500;-77
2023/03/21 01:49:46;;;;;;;63.00;19.55;;;;;;;8.24;100.00;101450.06;4983836;28;20050;-79
2023/03/21 01:52:37;;;;;;;80.20;21.10;;;;;;;8.24;100.00;101447.44;4973921;28;20058;-76
2023/03/21 01:55:17;;;;;;;;;;;;;;;8.22;100.00;101447.41;4983786;28;20053;-77
2023/03/21 01:58:03;;;;;;;104.18;23.80;;;;;;;8.22;100.00;101447.41;4986532;28;20442;-77
2023/03/21 02:00:54;;;;;;;108.47;24.73;;;;;;;8.21;100.00;101443.03;4933940;28;20042;-77
2023/03/21 02:03:49;;;;;;;118.13;26.10;;;;;;;8.22;100.00;101446.53;4962679;28;20043;-77
2023/03/21 02:06:50;;;;;;;107.60;24.58;;;;;;;8.20;100.00;101444.78;4959896;28;20051;-76
2023/03/21 02:09:36;;;;;;;164.52;30.80;;;;;;;8.20;100.00;101438.59;4968455;28;20038;-77
2023/03/21 02:12:11;;;;;;;137.85;31.27;;;;;;;8.20;100.00;101429.00;4970686;28;20057;-76
2023/03/21 02:14:39;;;;;;;188.02;31.83;;;;;;;8.22;100.00;101422.91;4945656;28;20047;-77
2023/03/21 02:17:58;;;;;;;179.68;29.73;;;;;;;8.20;100.00;101423.75;4909857;28;20046;-76
2023/03/21 02:21:06;;;;;;;168.20;30.00;;;;;;;8.21;100.00;101429.91;4972375;28;20203;-79
2023/03/21 02:23:52;;;;;;;144.80;28.15;;;;;;;8.22;100.00;101422.91;4985882;28;20074;-78
2023/03/21 02:26:46;;;;;;;161.63;30.52;;;;;;;8.21;100.00;101419.38;4987043;28;20054;-78
2023/03/21 02:29:41;;;;;;;148.48;31.13;;;;;;;8.21;100.00;101416.78;4981709;28;20058;-77
2023/03/21 02:32:56;;;;;;;164.80;29.58;;;;;;;8.21;100.00;101408.88;4920538;28;20046;-77
2023/03/21 02:36:05;;;;;;;126.78;28.17;;;;;;;8.22;100.00;101402.75;4970025;28;20043;-77
2023/03/21 02:38:58;;;;;;;121.45;28.15;;;;;;;8.22;100.00;101408.03;4979278;28;20051;-77
2023/03/21 02:41:53;;;;;;;108.35;26.10;;;;;;;8.22;100.00;101402.75;4974322;28;20050;-77
2023/03/21 02:44:33;;;;;;;118.57;26.65;;;;;;;8.22;100.00;101401.88;4987264;28;20051;-77
2023/03/21 02:47:06;;;;;;;104.20;24.70;;;;;;;8.22;100.00;101394.00;4984040;28;20055;-77
2023/03/21 02:49:46;;;;;;;109.75;26.05;;;;;;;8.21;100.00;101390.50;4952116;28;20054;-77
2023/03/21 02:52:19;;;;;;;104.78;26.73;;;;;;;8.23;100.00;101391.44;4983507;28;20046;-77
2023/03/21 02:55:06;;;;;;;93.18;24.88;;;;;;;8.24;100.00;101389.69;4969331;28;20427;-76
2023/03/21 02:57:49;;;;;;;89.82;25.30;;;;;;;8.24;100.00;101389.69;4945894;28;20050;-77
2023/03/21 03:00:20;;;;;;;94.70;25.75;;;;;;;8.25;100.00;101394.09;4961143;28;20393;-77
2023/03/21 03:02:49;;;;;;;82.68;24.05;;;;;;;8.25;100.00;101399.34;4963664;28;20050;-77
2023/03/21 03:05:29;;;;;;;90.50;24.85;;;;;;;8.25;100.00;101389.72;4983782;28;20058;-77
2023/03/21 03:08:05;;;;;;;91.38;25.67;;;;;;;8.25;100.00;101389.72;4959887;28;20057;-77
2023/03/21 03:10:51;;;;;;;90.18;26.52;;;;;;;8.27;100.00;101392.38;5006059;28;20395;-77
2023/03/21 03:13:37;;;;;;;95.63;27.08;;;;;;;8.26;100.00;101393.22;4973165;28;20696;-77
2023/03/21 03:16:24;;;;;;;75.43;25.33;;;;;;;8.27;100.00;101400.25;4979273;28;20195;-77
2023/03/21 03:18:54;;;;;;;98.18;26.27;;;;;;;8.26;100.00;101391.50;4922576;28;20051;-77
2023/03/21 03:21:36;;;;;;;88.53;27.52;;;;;;;8.27;100.00;101395.00;4978012;28;20435;-77
2023/03/21 03:24:08;;;;;;;83.60;25.95;;;;;;;8.28;100.00;101396.75;4949058;28;20058;-78
2023/03/21 03:26:46;;;;;;;94.20;27.05;;;;;;;8.29;100.00;101390.66;4986280;28;20061;-78
2023/03/21 03:29:17;;;;;;;82.32;27.15;;;;;;;8.29;100.00;101390.66;4972205;28;20058;-78
2023/03/21 03:31:49;;;;;;;86.28;26.42;;;;;;;8.29;100.00;101393.31;4959008;28;20051;-78
2023/03/21 03:34:26;;;;;;;83.63;27.77;;;;;;;8.30;100.00;101393.34;4942649;28;20057;-79
2023/03/21 03:36:56;;;;;;;89.60;28.23;;;;;;;8.29;100.00;101388.94;4968286;28;20053;-78
2023/03/21 03:39:30;;;;;;;79.65;27.63;;;;;;;8.30;100.00;101381.91;4983191;28;20046;-78
2023/03/21 03:42:13;;;;;;;90.22;28.65;;;;;;;8.30;100.00;101390.72;4956742;28;20055;-78
2023/03/21 03:45:00;;;;;;;75.95;27.40;;;;;;;8.30;100.00;101379.31;4982687;28;20082;-78
2023/03/21 03:47:41;;;;;;;82.85;28.10;;;;;;;8.30;100.00;101377.59;4968277;28;20062;-78
2023/03/21 03:50:29;;;;;;;66.00;25.95;;;;;;;8.30;100.00;101367.06;4986891;28;20039;-78
2023/03/21 03:53:07;;;;;;;67.50;25.35;;;;;;;8.31;100.00;101373.22;4961314;28;20448;-78
2023/03/21 03:55:48;;;;;;;70.38;27.42;;;;;;;8.31;100.00;101376.72;4984623;28;20054;-78
2023/03/21 03:58:19;;;;;;;74.95;27.65;;;;;;;8.31;100.00;101371.47;4983397;28;20692;-78
2023/03/21 04:00:54;;;;;;;73.65;27.45;;;;;;;8.32;100.00;101372.38;4984019;28;20034;-78
2023/03/21 04:03:21;;;;;;;64.43;25.52;;;;;;;8.33;100.00;101366.25;4964179;28;20514;-78
2023/03/21 04:05:49;;;;;;;55.90;25.80;;;;;;;8.33;100.00;101367.13;4941458;28;20046;-78
2023/03/21 04:08:17;;;;;;;67.22;26.02;;;;;;;8.33;100.00;101366.25;4968175;28;20050;-78
2023/03/21 04:10:50;;;;;;;61.63;26.92;;;;;;;8.34;100.00;101368.91;4968092;28;20038;-78
2023/03/21 04:13:18;;;;;;;56.55;24.38;;;;;;;8.33;100.00;101361.00;4949385;28;20058;-78
2023/03/21 04:16:08;;;;;;;62.33;23.95;;;;;;;8.32;100.00;101354.00;4952635;28;20685;-78
2023/03/21 04:18:38;;;;;;;64.63;25.05;;;;;;;8.33;100.00;101363.63;4991139;28;20066;-78
2023/03/21 04:21:11;;;;;;;63.97;26.08;;;;;;;8.34;100.00;101365.41;4937497;28;20403;-78
2023/03/21 04:23:40;;;;;;;54.33;24.55;;;;;;;8.33;100.00;101361.88;4987174;28;20058;-78
2023/03/21 04:26:08;;;;;;;60.40;25.98;;;;;;;8.35;100.00;101361.91;4986253;28;20057;-78
2023/03/21 04:28:40;;;;;;;72.25;26.95;;;;;;;8.35;100.00;101359.28;4948684;28;20050;-78
2023/03/21 04:31:40;;;;;;;60.65;25.48;;;;;;;8.35;100.00;101354.91;4979818;28;20054;-78
2023/03/21 04:34:11;;;;;;;71.90;25.77;;;;;;;8.36;100.00;101356.69;4910561;28;20050;-78
2023/03/21 04:36:49;;;;;;;49.55;22.83;;;;;;;8.36;100.00;101353.19;4989899;28;20043;-78
2023/03/21 04:39:17;;;;;;;65.22;24.77;;;;;;;8.36;100.00;101351.44;4957958;28;20050;-78
2023/03/21 04:41:48;;;;;;;56.10;24.52;;;;;;;8.37;100.00;101347.06;4967913;28;20063;-78
2023/03/21 04:44:17;;;;;;;58.53;23.02;;;;;;;8.37;100.00;101347.06;4999648;28;20046;-78
2023/03/21 04:46:49;;;;;;;54.28;22.58;;;;;;;8.36;100.00;101345.31;4991099;28;20051;-78
2023/03/21 04:49:17;;;;;;;63.08;23.52;;;;;;;8.38;100.00;101346.22;4933331;28;22677;-78
2023/03/21 04:51:45;;;;;;;57.97;23.15;;;;;;;8.38;100.00;101343.59;4979947;28;20054;-78
2023/03/21 04:54:17;;;;;;;53.83;21.88;;;;;;;8.37;100.00;101333.94;4945760;28;20496;-78
2023/03/21 04:56:45;;;;;;;49.67;19.88;;;;;;;8.37;100.00;101336.56;4989462;28;20046;-78
2023/03/21 04:59:14;;;;;;;54.10;20.85;;;;;;;8.37;100.00;101332.22;4961536;28;20059;-78
2023/03/21 05:01:44;;;;;;;53.42;20.27;;;;;;;8.38;100.00;101335.72;4966788;28;20062;-78
2023/03/21 05:04:13;;;;;;;44.45;18.85;;;;;;;8.37;100.00;101329.59;4979580;28;20082;-78
2023/03/21 05:06:44;;;;;;;54.22;19.65;;;;;;;8.37;100.00;101329.59;4914975;28;20061;-78
2023/03/21 05:09:12;;;;;;;45.53;19.15;;;;;;;8.37;100.00;101332.22;4955075;28;20842;-78
2023/03/21 05:11:40;;;;;;;47.75;18.85;;;;;;;8.37;100.00;101336.56;4987917;28;20488;-77
2023/03/21 05:14:13;;;;;;;41.17;19.10;;;;;;;8.37;100.00;101323.44;4960543;28;20549;-78
2023/03/21 05:16:43;;;;;;;46.63;18.15;;;;;;;8.37;100.00;101326.97;4985213;28;20053;-78
2023/03/21 05:19:12;;;;;;;43.67;18.63;;;;;;;8.38;100.00;101327.84;4983479;28;20109;-78
2023/03/21 05:21:42;;;;;;;47.53;19.03;;;;;;;8.38;100.00;101328.72;4875821;28;20069;-78
2023/03/21 05:24:19;;;;;;;39.00;17.60;;;;;;;8.38;100.00;101326.09;4960587;28;20077;-78
2023/03/21 05:26:51;;;;;;;41.72;19.63;;;;;;;8.38;100.00;101319.97;4946592;28;20072;-76
2023/03/21 05:29:22;;;;;;;39.78;17.88;;;;;;;8.37;100.00;101313.84;4939871;28;20069;-77
2023/03/21 05:31:59;;;;;;;40.05;18.25;;;;;;;8.38;100.00;101314.72;4966577;28;20057;-79
2023/03/21 05:34:27;;;;;;;38.80;16.33;;;;;;;8.38;100.00;101315.59;4967417;28;20058;-79
2023/03/21 05:36:55;;;;;;;37.13;16.80;;;;;;;8.39;100.00;101312.13;4925847;28;20046;-78
2023/03/21 05:39:25;;;;;;;37.50;15.90;;;;;;;8.38;100.00;101310.34;4966447;28;20054;-79
2023/03/21 05:42:01;;;;;;;41.10;17.25;;;;;;;8.38;100.00;101312.97;4989941;28;20069;-78
2023/03/21 05:44:30;;;;;;;41.10;16.63;;;;;;;8.39;100.00;101311.22;4965859;28;20085;-76
2023/03/21 05:47:00;;;;;;;37.00;15.70;;;;;;;8.40;100.00;101313.00;4967906;28;20050;-78
2023/03/21 05:49:37;;;;;;;45.28;17.55;;;;;;;8.40;100.00;101313.88;4979806;28;21050;-78
2023/03/21 05:52:05;;;;;;;44.65;17.33;;;;;;;8.40;100.00;101315.63;4930375;28;20058;-77
2023/03/21 05:54:32;;;;;;;38.83;16.67;;;;;;;8.41;100.00;101312.13;4971992;28;20054;-78
2023/03/21 05:57:02;;;;;;;49.75;18.38;;;;;;;8.42;100.00;101310.44;4957563;28;20460;-77
2023/03/21 05:59:48;;;;;;;43.55;18.73;;;;;;;8.43;100.00;101306.94;4971744;28;20057;-78
2023/03/21 06:02:17;;;;;;;44.42;17.80;;;;;;;8.44;100.00;101306.09;4945669;28;20070;-77
2023/03/21 06:04:46;;;;;;;39.45;17.42;;;;;;;8.44;100.00;101306.09;4975769;28;20061;-77
2023/03/21 06:07:13;;;;;;;41.15;16.42;;;;;;;8.45;100.00;101307.84;4964700;28;20070;-79
2023/03/21 06:09:41;;;;;;;48.53;18.50;;;;;;;8.46;100.00;101307.88;4905434;28;20054;-78
2023/03/21 06:12:08;;;;;;;45.38;17.98;;;;;;;8.47;100.00;101308.75;4969573;28;20910;-78
2023/03/21 06:15:05;;;;;;;37.67;16.88;;;;;;;8.46;100.00;101305.25;4977932;28;20086;-77
2023/03/21 06:17:43;;;;;;;45.83;18.25;;;;;;;8.50;100.00;101314.09;4965402;28;20394;-78
2023/03/21 06:20:13;;;;;;;50.33;19.23;;;;;;;8.49;100.00;101310.59;4946624;28;20054;-78
2023/03/21 06:22:45;;;;;;;41.05;18.63;;;;;;;8.50;100.00;101307.09;4977262;28;20053;-78
2023/03/21 06:25:14;;;;;;;41.47;16.92;;;;;;;8.50;100.00;101309.72;4935229;28;20050;-78
2023/03/21 06:27:42;;;;;;;39.28;16.83;;;;;;;8.52;100.00;101310.63;4986253;28;20508;-78
2023/03/21 06:30:10;;;;;;;41.92;17.13;;;;;;;8.53;100.00;101311.53;4960771;28;20051;-79
2023/03/21 06:32:45;;;;;;;39.65;16.52;;;;;;;8.52;100.00;101310.63;4982973;28;20042;-79
2023/03/21 06:35:17;;;;;;;35.03;16.08;;;;;;;8.53;100.00;101312.41;4977700;28;20054;-83
2023/03/21 06:37:48;;;;;;;34.85;16.00;;;;;;;8.54;100.00;101303.69;4944494;28;20403;-78
2023/03/21 06:40:16;;;;;;;35.88;16.00;;;;;;;8.55;100.00;101304.56;4906143;28;20054;-78
2023/03/21 06:42:44;;;;;;;33.97;16.05;;;;;;;8.55;100.00;101300.19;4972632;28;20050;-78
2023/03/21 06:45:13;;;;;;;30.67;15.70;;;;;;;8.57;100.00;101308.09;4964128;28;20058;-77
2023/03/21 06:47:41;;;;;;;37.63;16.00;;;;;;;8.56;100.00;101303.69;4977585;28;20043;-78
2023/03/21 06:50:18;;;;;;;37.30;17.58;;;;;;;8.56;100.00;101296.72;4969355;28;20050;-78
2023/03/21 06:52:45;;;;;;;36.00;15.85;;;;;;;8.59;100.00;101309.00;4987312;28;20057;-78
2023/03/21 06:55:14;;;;;;;31.83;15.45;;;;;;;8.59;100.00;101309.88;4926535;28;20054;-78
2023/03/21 06:57:41;;;;;;;32.70;15.23;;;;;;;8.60;100.00;101308.16;4985955;28;20050;-78
2023/03/21 07:00:10;;;;;;;35.38;16.48;;;;;;;8.61;100.00;101306.41;4969002;28;20054;-77
2023/03/21 07:02:43;;;;;;;37.78;17.45;;;;;;;8.61;100.00;101304.66;4980677;28;20042;-76
2023/03/21 07:05:16;;;;;;;36.78;17.10;;;;;;;8.64;100.00;101315.25;4959750;28;20063;-78
2023/03/21 07:07:43;;;;;;;32.85;16.52;;;;;;;8.65;100.00;101313.50;4961924;28;20432;-77
2023/03/21 07:10:11;;;;;;;35.22;16.92;;;;;;;8.65;100.00;101306.50;4903596;28;20577;-77
2023/03/21 07:12:57;;;;;;;33.08;17.08;;;;;;;8.67;100.00;101309.16;4971647;28;20465;-76
2023/03/21 07:15:52;;;;;;;33.45;15.93;;;;;;;8.68;100.00;101313.56;4976992;28;20121;-77
2023/03/21 07:18:20;;;;;;;30.40;16.02;;;;;;;8.68;100.00;101310.94;4965671;28;20058;-77
2023/03/21 07:20:51;;;;;;;33.38;15.77;;;;;;;8.69;100.00;101323.19;4937949;28;20046;-76
2023/03/21 07:23:21;;;;;;;35.75;16.55;;;;;;;8.70;100.00;101314.47;4952653;28;20046;-77
2023/03/21 07:25:50;;;;;;;29.45;15.77;;;;;;;8.71;100.00;101317.09;4913008;28;20047;-77
2023/03/21 07:28:18;;;;;;;28.80;15.05;;;;;;;8.71;100.00;101314.47;4958616;28;20074;-77
2023/03/21 07:30:52;;;;;;;30.50;15.40;;;;;;;8.73;100.00;101311.88;4975563;28;20081;-76
2023/03/21 07:33:20;;;;;;;30.73;16.10;;;;;;;8.75;100.00;101315.44;4968778;28;20043;-77
2023/03/21 07:35:50;;;;;;;32.30;15.25;;;;;;;8.77;100.00;101311.06;4956714;28;20496;-77
2023/03/21 07:38:18;;;;;;;30.60;15.33;;;;;;;8.80;100.00;101321.66;4966090;28;20047;-77
2023/03/21 07:40:47;;;;;;;28.13;14.90;;;;;;;8.82;100.00;101319.94;4934332;28;20319;-77
2023/03/21 07:43:16;;;;;;;31.35;15.13;;;;;;;8.83;100.00;101319.09;4974968;28;20053;-77
2023/03/21 07:45:55;;;;;;;34.88;16.30;;;;;;;8.84;100.00;101312.97;4972582;28;20050;-77
2023/03/21 07:48:23;;;;;;;31.60;14.95;;;;;;;8.87;100.00;101307.78;4969577;28;20046;-79
2023/03/21 07:50:50;;;;;;;25.95;14.05;;;;;;;8.88;100.00;101313.91;4964708;28;20054;-77
2023/03/21 07:53:18;;;;;;;30.10;16.05;;;;;;;8.89;100.00;101308.69;4980621;28;20038;-79
2023/03/21 07:55:51;;;;;;;26.20;13.85;;;;;;;8.91;100.00;101317.47;4999758;28;20061;-78
2023/03/21 07:58:19;;;;;;;24.40;13.57;;;;;;;8.94;100.00;101311.38;4938436;28;20065;-78
2023/03/21 08:00:47;;;;;;;30.60;15.30;;;;;;;8.94;100.00;101307.03;4952100;28;20049;-78
2023/03/21 08:03:15;;;;;;;24.73;14.57;;;;;;;8.96;100.00;101307.94;4965902;28;20423;-77
2023/03/21 08:05:43;;;;;;;30.85;15.75;;;;;;;8.99;100.00;101314.97;4961797;28;20051;-78
2023/03/21 08:08:11;;;;;;;22.73;13.50;;;;;;;9.00;100.00;101303.63;4979618;28;20054;-78
2023/03/21 08:10:40;;;;;;;30.20;14.40;;;;;;;9.01;100.00;101309.75;4973152;28;20150;-78
2023/03/21 08:13:08;;;;;;;25.02;13.57;;;;;;;9.02;100.00;101306.25;4942016;28;20045;-78
2023/03/21 08:15:36;;;;;;;22.65;13.13;;;;;;;9.05;100.00;101301.06;4952132;28;20436;-78
2023/03/21 08:18:04;;;;;;;24.55;13.85;;;;;;;9.06;100.00;101301.09;4969589;28;20593;-78
2023/03/21 08:20:31;;;;;;;17.95;11.43;;;;;;;9.10;100.00;101302.03;4984860;28;20046;-78
2023/03/21 08:22:59;;;;;;;20.70;12.45;;;;;;;9.10;100.00;101302.91;4937465;28;20121;-78
2023/03/21 08:25:26;;;;;;;17.77;11.10;;;;;;;9.10;100.00;101300.28;4983628;28;20050;-78
2023/03/21 08:27:54;;;;;;;16.05;10.50;;;;;;;9.08;100.00;101296.72;4936293;28;20041;-79
2023/03/21 08:30:24;;;;;;;16.00;10.02;;;;;;;9.10;100.00;101297.63;4963597;28;20055;-78
2023/03/21 08:32:56;;;;;;;14.25;9.57;;;;;;;9.10;100.00;101304.66;4996791;28;20065;-78
2023/03/21 08:35:29;;;;;;;16.73;10.50;;;;;;;9.09;100.00;101288.00;4996149;28;20054;-78
2023/03/21 08:37:56;;;;;;;17.27;10.50;;;;;;;9.14;100.00;101298.59;4981154;28;20061;-77
2023/03/21 08:40:24;;;;;;;12.27;9.40;;;;;;;9.15;100.00;101288.09;4977107;28;20051;-78
2023/03/21 08:42:52;;;;;;;17.08;8.80;;;;;;;9.15;100.00;101292.47;4939255;28;20348;-78
2023/03/21 08:45:20;;;;;;;11.77;8.65;;;;;;;9.14;100.00;101286.31;4989307;28;20082;-78
2023/03/21 08:47:47;;;;;;;12.90;8.32;;;;;;;9.13;100.00;101287.19;4968120;28;20058;-78
2023/03/21 08:50:17;;;;;;;9.85;8.20;;;;;;;9.15;100.00;101281.97;4997650;28;20549;-77
2023/03/21 08:52:45;;;;;;;15.05;8.40;;;;;;;9.15;100.00;101284.59;4997766;28;20062;-77
2023/03/21 08:55:14;;;;;;;10.93;8.70;;;;;;;9.16;100.00;101286.34;4987046;28;20502;-78
2023/03/21 08:57:42;;;;;;;10.60;7.90;;;;;;;9.17;100.00;101299.50;4940113;28;20046;-78
2023/03/21 09:00:16;;;;;;;8.25;7.35;;;;;;;9.18;100.00;101287.25;4959167;28;20054;-78
2023/03/21 09:02:45;;;;;;;12.43;8.30;;;;;;;9.22;100.00;101285.56;5003347;28;20057;-78
2023/03/21 09:05:15;;;;;;;11.00;8.30;;;;;;;9.24;100.00;101281.19;5014079;28;20453;-78
2023/03/21 09:07:43;;;;;;;10.23;7.87;;;;;;;9.24;100.00;101281.19;4980589;28;20054;-78
2023/03/21 09:10:14;;;;;;;9.52;7.20;;;;;;;9.26;100.00;101285.66;4989063;28;20053;-78
2023/03/21 09:12:49;;;;;;;10.85;7.53;;;;;;;9.27;100.00;101281.25;4982700;28;20496;-78
2023/03/21 09:15:19;;;;;;;8.95;6.90;;;;;;;9.28;100.00;101281.28;4936868;28;20385;-78
2023/03/21 09:17:49;;;;;;;9.20;6.90;;;;;;;9.29;100.00;101283.03;4999852;28;20408;-78
2023/03/21 09:20:20;;;;;;;7.07;6.38;;;;;;;9.28;100.00;101276.03;4981740;28;20050;-78
2023/03/21 09:22:49;;;;;;;8.43;6.65;;;;;;;9.28;100.00;101276.03;4988195;28;20054;-78
2023/03/21 09:25:18;;;;;;;8.38;6.55;;;;;;;9.29;100.00;101275.16;4960916;28;20043;-78
2023/03/21 09:27:46;;;;;;;7.53;5.95;;;;;;;9.31;100.00;101270.78;5002508;28;20046;-77
2023/03/21 09:30:15;;;;;;;6.53;5.82;;;;;;;9.32;100.00;101269.06;4941885;28;20059;-78
2023/03/21 09:32:48;;;;;;;6.93;5.43;;;;;;;9.30;100.00;101270.75;4954157;28;20051;-78
2023/03/21 09:35:17;;;;;;;9.88;6.38;;;;;;;9.30;100.00;101274.31;4983209;28;20050;-77
2023/03/21 09:37:47;;;;;;;7.70;6.45;;;;;;;9.31;100.00;101283.06;4984713;28;20093;-77
2023/03/21 09:40:51;;;;;;;8.05;6.95;;;;;;;9.31;100.00;101268.16;4978890;28;20058;-78
2023/03/21 09:43:57;;;;;;;10.70;8.00;;;;;;;9.33;100.00;101270.81;4973200;28;20050;-78
2023/03/21 09:46:44;;;;;;;10.48;8.45;;;;;;;9.32;100.00;101275.22;4930684;28;20065;-78
2023/03/21 09:49:24;;;;;;;13.30;8.10;;;;;;;9.32;100.00;101275.22;4974314;28;20083;-78
2023/03/21 09:51:55;;;;;;;12.88;8.35;;;;;;;9.31;100.00;101268.16;4978719;28;20065;-79
2023/03/21 09:54:31;;;;;;;12.68;8.60;;;;;;;9.31;100.00;101257.66;4997480;28;20039;-78
2023/03/21 09:57:06;;;;;;;17.70;8.52;;;;;;;9.31;100.00;101259.41;5004143;28;20054;-78
2023/03/21 09:59:38;;;;;;;11.05;8.20;;;;;;;9.30;100.00;101261.16;4992767;28;20047;-79
2023/03/21 10:02:18;;;;;;;11.93;8.68;;;;;;;9.30;100.00;101261.16;4940336;28;20057;-78
2023/03/21 10:04:45;;;;;;;11.18;8.10;;;;;;;9.30;100.00;101261.16;4984551;28;20073;-78
2023/03/21 10:07:16;;;;;;;18.10;10.68;;;;;;;9.30;100.00;101260.25;4971750;28;20062;-78
2023/03/21 10:09:46;;;;;;;14.00;10.07;;;;;;;9.31;100.00;101254.13;4983132;28;20126;-78
2023/03/21 10:12:20;;;;;;;13.98;9.73;;;;;;;9.31;100.00;101257.66;4951984;28;20059;-78
2023/03/21 10:14:52;;;;;;;15.55;10.35;;;;;;;9.33;100.00;101242.78;4999354;28;20069;-78
2023/03/21 10:17:32;;;;;;;15.25;10.45;;;;;;;9.41;100.00;101248.13;4927940;28;20066;-78
2023/03/21 10:20:10;;;;;;;13.40;10.05;;;;;;;9.42;100.00;101242.03;4980064;28;20065;-78
2023/03/21 10:22:38;;;;;;;15.30;12.02;;;;;;;9.45;100.00;101246.44;4983247;28;20385;-79
2023/03/21 10:25:10;;;;;;;14.43;10.18;;;;;;;9.49;100.00;101240.34;4992327;28;20066;-79
2023/03/21 10:27:37;;;;;;;13.23;10.57;;;;;;;9.48;100.00;101249.13;4952044;28;20421;-79
2023/03/21 10:30:07;;;;;;;14.18;11.10;;;;;;;9.47;100.00;101239.44;4962835;28;20500;-79
2023/03/21 10:32:34;;;;;;;20.10;12.18;;;;;;;9.47;100.00;101239.44;4957131;28;20049;-79
2023/03/21 10:35:03;;;;;;;14.75;10.55;;;;;;;9.45;100.00;101241.19;4930192;28;20050;-78
2023/03/21 10:37:31;;;;;;;18.40;11.27;;;;;;;9.43;100.00;101235.00;4976011;28;20412;-78
2023/03/21 10:39:59;;;;;;;16.95;12.20;;;;;;;9.40;100.00;101240.25;4967325;28;20061;-78
2023/03/21 10:42:30;;;;;;;16.55;11.25;;;;;;;9.40;100.00;101246.38;4971108;28;20062;-77
2023/03/21 10:44:57;;;;;;;21.35;12.30;;;;;;;9.38;100.00;101239.34;4986540;28;20058;-77
2023/03/21 10:47:34;;;;;;;15.05;11.50;;;;;;;9.35;100.00;101229.66;4976192;28;20061;-77
2023/03/21 10:50:11;;;;;;;18.33;12.93;;;;;;;9.34;100.00;101239.28;4972608;28;20054;-78
2023/03/21 10:52:59;;;;;;;17.30;12.00;;;;;;;9.33;100.00;101234.00;4977019;28;20067;-78
2023/03/21 10:55:33;;;;;;;17.63;12.38;;;;;;;9.30;100.00;101237.47;4983151;28;20047;-78
2023/03/21 10:58:28;;;;;;;18.90;13.52;;;;;;;9.29;100.00;101227.81;4966711;28;20051;-78
2023/03/21 11:01:01;;;;;;;20.35;14.35;;;;;;;9.29;100.00;101227.81;4984279;28;20085;-78
2023/03/21 11:03:42;;;;;;;22.98;15.45;;;;;;;9.32;100.00;101219.09;4945706;28;20528;-77
2023/03/21 11:06:26;;;;;;;26.35;16.17;;;;;;;9.32;100.00;101222.59;4974145;28;20061;-79
2023/03/21 11:08:57;;;;;;;24.27;17.15;;;;;;;9.32;100.00;101224.38;4985571;28;20065;-79
2023/03/21 11:11:26;;;;;;;24.20;16.67;;;;;;;9.30;100.00;101218.16;4988849;28;20096;-79
2023/03/21 11:14:00;;;;;;;27.00;16.33;;;;;;;9.31;100.00;101209.44;4984322;28;20160;-79
2023/03/21 11:16:42;;;;;;;21.70;16.25;;;;;;;9.35;100.00;101211.22;4978121;28;20046;-79
2023/03/21 11:19:16;;;;;;;24.10;17.20;;;;;;;9.40;100.00;101219.22;4936192;28;20167;-79
2023/03/21 11:21:44;;;;;;;26.05;15.63;;;;;;;9.46;100.00;101203.50;4994744;28;20114;-79
2023/03/21 11:24:16;;;;;;;22.08;15.52;;;;;;;9.49;100.00;101206.16;4966704;28;20049;-79
2023/03/21 11:26:46;;;;;;;22.83;16.00;;;;;;;9.51;100.00;101200.06;4962265;28;20062;-78
2023/03/21 11:29:25;;;;;;;;;;;;;;;9.55;100.00;101198.38;4983153;28;20061;-78
2023/03/21 11:31:52;;;;;;;22.30;15.15;;;;;;;9.58;100.00;101198.38;4966062;28;19945;-78
2023/03/21 11:34:27;;;;;;;20.50;15.50;;;;;;;9.65;100.00;101192.34;4947937;28;20046;-78
2023/03/21 11:37:01;;;;;;;18.48;14.32;;;;;;;9.70;100.00;101198.56;4935795;28;20661;-78
2023/03/21 11:39:36;;;;;;;19.88;13.35;;;;;;;9.74;100.00;101186.31;4980961;28;20046;-78
2023/03/21 11:42:03;;;;;;;21.73;15.00;;;;;;;9.81;100.00;101198.69;4988384;28;20074;-77
2023/03/21 11:44:34;;;;;;;17.67;12.80;;;;;;;9.84;100.00;101198.72;4978957;28;20059;-78
2023/03/21 11:47:02;;;;;;;17.63;11.40;;;;;;;9.86;100.00;101186.44;4997548;28;20046;-78